createdAt,value
2018-11-10T00:00:48.992Z,19.82
2018-11-10T00:03:17.568Z,19.82
2018-11-10T00:05:46.142Z,19.81
2018-11-10T00:08:15.011Z,19.81
2018-11-10T00:10:43.514Z,19.80
2018-11-10T00:13:12.091Z,19.80
2018-11-10T00:15:40.805Z,19.79
2018-11-10T00:18:09.380Z,19.79
2018-11-10T00:20:38.986Z,19.80
2018-11-10T00:23:10.160Z,19.78
2018-11-10T00:25:41.747Z,19.77
2018-11-10T00:28:12.747Z,19.77
2018-11-10T00:30:41.282Z,19.76
2018-11-10T00:33:09.830Z,19.76
2018-11-10T00:35:38.564Z,19.74
2018-11-10T00:38:07.626Z,19.74
2018-11-10T00:40:36.180Z,19.73
2018-11-10T00:43:05.065Z,19.72
2018-11-10T00:45:33.636Z,19.72
2018-11-10T00:48:02.302Z,19.72
2018-11-10T00:50:30.952Z,19.71
2018-11-10T00:52:59.566Z,19.71
2018-11-10T00:55:28.429Z,19.70
2018-11-10T00:57:57.037Z,19.69
2018-11-10T01:00:25.683Z,19.68
2018-11-10T01:02:54.961Z,19.67
2018-11-10T01:05:23.656Z,19.65
2018-11-10T01:07:52.195Z,19.67
2018-11-10T01:10:21.301Z,19.65
2018-11-10T01:12:50.054Z,19.65
2018-11-10T01:15:18.621Z,19.64
2018-11-10T01:17:47.861Z,19.63
2018-11-10T01:20:16.680Z,19.64
2018-11-10T01:22:45.216Z,19.63
2018-11-10T01:25:13.760Z,19.61
2018-11-10T01:27:43.224Z,19.62
2018-11-10T01:30:15.945Z,19.62
2018-11-10T01:32:45.398Z,19.63
2018-11-10T01:35:14.634Z,19.62
2018-11-10T01:37:43.260Z,19.63
2018-11-10T01:40:13.185Z,19.62
2018-11-10T01:42:42.426Z,19.62
2018-11-10T01:45:13.629Z,19.61
2018-11-10T01:47:42.462Z,19.61
2018-11-10T01:50:11.428Z,19.60
2018-11-10T01:52:40.438Z,19.58
2018-11-10T01:55:09.818Z,19.58
2018-11-10T01:57:38.417Z,19.57
2018-11-10T02:00:10.833Z,19.57
2018-11-10T02:02:40.012Z,19.57
2018-11-10T02:05:08.629Z,19.55
2018-11-10T02:07:37.321Z,19.55
2018-11-10T02:10:07.271Z,19.55
2018-11-10T02:12:35.763Z,19.53
2018-11-10T02:15:04.441Z,19.53
2018-11-10T02:17:32.905Z,19.54
2018-11-10T02:20:01.453Z,19.54
2018-11-10T02:22:30.038Z,19.53
2018-11-10T02:24:58.736Z,19.52
2018-11-10T02:27:28.600Z,19.51
2018-11-10T02:29:57.312Z,19.51
2018-11-10T02:32:25.804Z,19.50
2018-11-10T02:34:54.514Z,19.50
2018-11-10T02:37:22.994Z,19.50
2018-11-10T02:39:51.489Z,19.52
2018-11-10T02:42:20.023Z,19.53
2018-11-10T02:44:48.676Z,19.52
2018-11-10T02:47:18.041Z,19.53
2018-11-10T02:49:46.732Z,19.53
2018-11-10T02:52:15.214Z,19.52
2018-11-10T02:54:43.765Z,19.50
2018-11-10T02:57:12.536Z,19.51
2018-11-10T02:59:41.012Z,19.53
2018-11-10T03:02:09.593Z,19.50
2018-11-10T03:04:38.100Z,19.49
2018-11-10T03:07:06.641Z,19.51
2018-11-10T03:09:35.112Z,19.48
2018-11-10T03:12:04.348Z,19.47
2018-11-10T03:14:33.414Z,19.47
2018-11-10T03:17:01.920Z,19.47
2018-11-10T03:19:30.566Z,19.47
2018-11-10T03:21:59.056Z,19.47
2018-11-10T03:24:27.568Z,19.47
2018-11-10T03:26:57.282Z,19.46
2018-11-10T03:29:25.778Z,19.47
2018-11-10T03:31:54.346Z,19.47
2018-11-10T03:34:23.013Z,19.45
2018-11-10T03:36:52.103Z,19.46
2018-11-10T03:39:20.771Z,19.45
2018-11-10T03:41:49.307Z,19.45
2018-11-10T03:44:18.689Z,19.47
2018-11-10T03:46:47.129Z,19.48
2018-11-10T03:49:15.910Z,19.47
2018-11-10T03:51:44.556Z,19.47
2018-11-10T03:54:13.197Z,19.48
2018-11-10T03:56:41.707Z,19.47
2018-11-10T03:59:10.352Z,19.49
2018-11-10T04:01:39.457Z,19.48
2018-11-10T04:04:08.673Z,19.47
2018-11-10T04:06:37.177Z,19.49
2018-11-10T04:09:06.725Z,19.52
2018-11-10T04:11:35.561Z,19.50
2018-11-10T04:14:04.711Z,19.52
2018-11-10T04:16:33.289Z,19.51
2018-11-10T04:19:01.929Z,19.50
2018-11-10T04:21:31.653Z,19.50
2018-11-10T04:24:00.344Z,19.49
2018-11-10T04:26:28.893Z,19.49
2018-11-10T04:28:57.382Z,19.49
2018-11-10T04:31:26.494Z,19.48
2018-11-10T04:33:55.113Z,19.49
2018-11-10T04:36:23.692Z,19.48
2018-11-10T04:38:52.297Z,19.50
2018-11-10T04:41:20.797Z,19.48
2018-11-10T04:43:49.313Z,19.49
2018-11-10T04:46:17.849Z,19.49
2018-11-10T04:48:46.561Z,19.51
2018-11-10T04:51:15.106Z,19.47
2018-11-10T04:53:43.576Z,19.49
2018-11-10T04:56:12.197Z,19.49
2018-11-10T04:58:42.024Z,19.49
2018-11-10T05:01:10.628Z,19.48
2018-11-10T05:03:39.574Z,19.47
2018-11-10T05:06:08.250Z,19.48
2018-11-10T05:08:36.726Z,19.47
2018-11-10T05:11:05.565Z,19.48
2018-11-10T05:13:34.073Z,19.49
2018-11-10T05:16:03.332Z,19.49
2018-11-10T05:18:31.878Z,19.55
2018-11-10T05:21:00.326Z,19.81
2018-11-10T05:23:28.809Z,20.08
2018-11-10T05:25:57.844Z,20.35
2018-11-10T05:28:27.013Z,20.55
2018-11-10T05:30:55.607Z,20.73
2018-11-10T05:33:24.399Z,20.89
2018-11-10T05:35:53.009Z,21.01
2018-11-10T05:38:21.546Z,21.08
2018-11-10T05:40:50.045Z,21.14
2018-11-10T05:43:19.121Z,21.19
2018-11-10T05:45:47.749Z,21.24
2018-11-10T05:48:16.916Z,21.26
2018-11-10T05:50:45.587Z,21.26
2018-11-10T05:53:14.136Z,21.27
2018-11-10T05:55:42.719Z,21.26
2018-11-10T05:58:11.422Z,21.25
2018-11-10T06:00:39.881Z,21.25
2018-11-10T06:03:08.491Z,21.23
2018-11-10T06:05:37.853Z,21.21
2018-11-10T06:08:06.387Z,21.23
2018-11-10T06:10:36.656Z,21.20
2018-11-10T06:13:05.419Z,21.20
2018-11-10T06:15:34.137Z,21.17
2018-11-10T06:18:04.450Z,21.16
2018-11-10T06:20:33.006Z,21.13
2018-11-10T06:23:01.502Z,21.08
2018-11-10T06:25:29.974Z,21.03
2018-11-10T06:27:58.721Z,21.01
2018-11-10T06:30:28.267Z,20.98
2018-11-10T06:32:57.274Z,20.93
2018-11-10T06:35:25.929Z,20.90
2018-11-10T06:37:54.423Z,20.87
2018-11-10T06:40:24.801Z,20.85
2018-11-10T06:42:53.998Z,20.81
2018-11-10T06:45:22.560Z,20.79
2018-11-10T06:47:51.093Z,20.76
2018-11-10T06:50:20.787Z,20.73
2018-11-10T06:52:49.481Z,20.70
2018-11-10T06:55:18.256Z,20.69
2018-11-10T06:57:46.992Z,20.67
2018-11-10T07:00:16.633Z,20.65
2018-11-10T07:02:45.174Z,20.64
2018-11-10T07:05:14.596Z,20.64
2018-11-10T07:07:43.334Z,17.59
2018-11-10T07:10:11.987Z,15.00
2018-11-10T07:12:40.602Z,13.59
2018-11-10T07:15:10.010Z,12.45
2018-11-10T07:17:38.815Z,11.58
2018-11-10T07:20:08.031Z,11.31
2018-11-10T07:22:36.837Z,11.06
2018-11-10T07:25:07.483Z,10.65
2018-11-10T07:27:40.161Z,10.30
2018-11-10T07:30:14.691Z,10.24
2018-11-10T07:32:43.786Z,10.37
2018-11-10T07:35:13.289Z,10.25
2018-11-10T07:37:42.317Z,10.21
2018-11-10T07:40:12.530Z,10.25
2018-11-10T07:42:41.630Z,10.42
2018-11-10T07:45:12.237Z,10.46
2018-11-10T07:47:41.677Z,10.49
2018-11-10T07:50:10.952Z,10.54
2018-11-10T07:52:39.823Z,10.57
2018-11-10T07:55:09.359Z,10.59
2018-11-10T07:57:37.962Z,10.63
2018-11-10T08:00:10.000Z,10.62
2018-11-10T08:02:38.613Z,10.76
2018-11-10T08:05:09.583Z,10.78
2018-11-10T08:07:38.376Z,10.84
2018-11-10T08:10:07.512Z,10.94
2018-11-10T08:12:36.297Z,10.91
2018-11-10T08:15:05.947Z,10.89
2018-11-10T08:17:35.299Z,10.93
2018-11-10T08:20:03.971Z,10.93
2018-11-10T08:22:35.234Z,10.69
2018-11-10T08:25:03.993Z,10.68
2018-11-10T08:27:32.486Z,10.70
2018-11-10T08:30:01.191Z,10.73
2018-11-10T08:32:30.552Z,10.73
2018-11-10T08:35:00.011Z,10.87
2018-11-10T08:37:28.946Z,10.86
2018-11-10T08:39:57.484Z,10.91
2018-11-10T08:42:39.298Z,11.03
2018-11-10T08:45:09.201Z,11.18
2018-11-10T08:47:38.723Z,11.33
2018-11-10T08:50:08.835Z,11.45
2018-11-10T08:52:38.369Z,11.56
2018-11-10T08:55:08.448Z,11.60
2018-11-10T08:57:37.398Z,11.67
2018-11-10T09:00:06.486Z,11.72
2018-11-10T09:02:35.229Z,11.78
2018-11-10T09:05:03.900Z,11.90
2018-11-10T09:07:32.438Z,11.89
2018-11-10T09:10:01.057Z,11.97
2018-11-10T09:12:29.673Z,11.90
2018-11-10T09:14:58.364Z,12.08
2018-11-10T09:17:27.074Z,12.19
2018-11-10T09:19:55.772Z,12.26
2018-11-10T09:22:24.305Z,12.34
2018-11-10T09:24:52.782Z,12.39
2018-11-10T09:27:22.618Z,12.44
2018-11-10T09:29:51.360Z,12.39
2018-11-10T09:32:19.865Z,12.52
2018-11-10T09:34:48.360Z,12.58
2018-11-10T09:37:16.945Z,12.70
2018-11-10T09:39:45.528Z,12.80
2018-11-10T09:42:14.884Z,12.85
2018-11-10T09:44:43.434Z,13.09
2018-11-10T09:47:12.708Z,13.29
2018-11-10T09:49:41.303Z,13.36
2018-11-10T09:52:10.395Z,13.53
2018-11-10T09:54:38.932Z,13.69
2018-11-10T09:57:09.056Z,13.83
2018-11-10T09:59:37.666Z,14.04
2018-11-10T10:02:06.858Z,14.25
2018-11-10T10:04:35.176Z,14.34
2018-11-10T10:07:14.807Z,14.43
2018-11-10T10:09:46.083Z,14.39
2018-11-10T10:12:14.746Z,14.56
2018-11-10T10:14:43.238Z,14.68
2018-11-10T10:17:12.970Z,14.76
2018-11-10T10:19:41.533Z,14.91
2018-11-10T10:22:10.130Z,14.90
2018-11-10T10:24:38.738Z,15.02
2018-11-10T10:27:07.436Z,15.20
2018-11-10T10:29:36.696Z,15.34
2018-11-10T10:32:05.533Z,15.41
2018-11-10T10:34:34.859Z,15.64
2018-11-10T10:37:06.843Z,15.72
2018-11-10T10:39:39.257Z,15.80
2018-11-10T10:42:11.895Z,15.92
2018-11-10T10:44:44.456Z,16.28
2018-11-10T10:47:16.477Z,16.42
2018-11-10T10:49:45.221Z,16.47
2018-11-10T10:52:18.262Z,16.46
2018-11-10T10:54:50.457Z,16.66
2018-11-10T10:57:22.941Z,16.81
2018-11-10T10:59:55.694Z,17.02
2018-11-10T11:02:33.629Z,17.11
2018-11-10T11:05:10.512Z,17.41
2018-11-10T11:07:43.489Z,17.43
2018-11-10T11:10:15.030Z,17.69
2018-11-10T11:12:45.861Z,17.57
2018-11-10T11:15:15.161Z,17.55
2018-11-10T11:17:44.773Z,17.81
2018-11-10T11:20:14.352Z,17.86
2018-11-10T11:22:44.721Z,18.04
2018-11-10T11:25:15.307Z,18.23
2018-11-10T11:27:44.245Z,18.38
2018-11-10T11:30:12.776Z,18.63
2018-11-10T11:32:42.617Z,18.70
2018-11-10T11:35:13.086Z,18.85
2018-11-10T11:37:42.412Z,18.91
2018-11-10T11:40:12.832Z,18.99
2018-11-10T11:42:42.949Z,18.85
2018-11-10T11:45:12.378Z,18.69
2018-11-10T11:47:42.264Z,18.77
2018-11-10T11:50:12.708Z,18.71
2018-11-10T11:52:42.171Z,18.40
2018-11-10T11:55:12.087Z,18.37
2018-11-10T11:57:42.052Z,18.52
2018-11-10T12:00:17.546Z,18.52
2018-11-10T12:02:46.788Z,18.44
2018-11-10T12:05:16.594Z,18.64
2018-11-10T12:07:46.728Z,18.62
2018-11-10T12:10:16.212Z,18.89
2018-11-10T12:12:44.983Z,19.04
2018-11-10T12:15:14.861Z,19.21
2018-11-10T12:17:43.407Z,19.28
2018-11-10T12:20:13.314Z,19.45
2018-11-10T12:22:42.306Z,19.38
2018-11-10T12:25:12.062Z,19.55
2018-11-10T12:27:42.238Z,19.74
2018-11-10T12:30:11.461Z,19.75
2018-11-10T12:32:40.545Z,19.95
2018-11-10T12:35:10.453Z,20.03
2018-11-10T12:37:39.248Z,19.83
2018-11-10T12:40:09.437Z,19.84
2018-11-10T12:42:38.885Z,19.69
2018-11-10T12:45:08.469Z,19.55
2018-11-10T12:47:37.728Z,19.30
2018-11-10T12:50:07.286Z,19.18
2018-11-10T12:52:35.813Z,19.25
2018-11-10T12:55:06.359Z,19.30
2018-11-10T12:57:34.968Z,19.32
2018-11-10T13:00:03.545Z,19.26
2018-11-10T13:02:32.025Z,19.36
2018-11-10T13:05:02.262Z,19.41
2018-11-10T13:07:31.003Z,19.45
2018-11-10T13:10:00.239Z,19.41
2018-11-10T13:12:30.080Z,19.87
2018-11-10T13:15:04.372Z,20.11
2018-11-10T13:17:33.102Z,20.33
2018-11-10T13:20:01.633Z,20.47
2018-11-10T13:22:31.222Z,20.36
2018-11-10T13:24:59.750Z,20.44
2018-11-10T13:27:28.213Z,20.24
2018-11-10T13:29:56.723Z,20.05
2018-11-10T13:32:25.301Z,20.15
2018-11-10T13:34:56.516Z,20.04
2018-11-10T13:37:25.404Z,19.85
2018-11-10T13:39:54.333Z,20.21
2018-11-10T13:42:24.400Z,20.42
2018-11-10T13:44:53.332Z,20.42
2018-11-10T13:47:24.069Z,20.54
2018-11-10T13:49:52.983Z,20.23
2018-11-10T13:52:21.859Z,20.29
2018-11-10T13:54:50.082Z,20.28
2018-11-10T13:57:20.575Z,20.14
2018-11-10T13:59:51.395Z,19.84
2018-11-10T14:02:20.510Z,19.49
2018-11-10T14:04:48.991Z,19.28
2018-11-10T14:07:18.291Z,18.98
2018-11-10T14:09:47.311Z,18.84
2018-11-10T14:12:16.547Z,18.65
2018-11-10T14:14:47.559Z,18.67
2018-11-10T14:17:16.482Z,18.53
2018-11-10T14:19:45.437Z,18.40
2018-11-10T14:22:17.109Z,18.22
2018-11-10T14:24:45.949Z,17.95
2018-11-10T14:27:14.502Z,17.69
2018-11-10T14:29:43.119Z,17.57
2018-11-10T14:32:12.447Z,17.42
2018-11-10T14:34:41.230Z,17.33
2018-11-10T14:37:10.100Z,17.28
2018-11-10T14:39:39.460Z,17.26
2018-11-10T14:42:08.321Z,17.15
2018-11-10T14:44:36.923Z,17.05
2018-11-10T14:47:06.394Z,16.96
2018-11-10T14:49:35.035Z,16.89
2018-11-10T14:52:03.551Z,16.76
2018-11-10T14:54:32.035Z,16.73
2018-11-10T14:57:01.432Z,16.56
2018-11-10T14:59:30.355Z,16.53
2018-11-10T15:02:00.531Z,16.49
2018-11-10T15:04:29.167Z,16.38
2018-11-10T15:06:57.690Z,16.21
2018-11-10T15:09:26.710Z,16.17
2018-11-10T15:11:55.501Z,16.08
2018-11-10T15:14:24.616Z,16.04
2018-11-10T15:16:53.341Z,16.01
2018-11-10T15:19:21.993Z,16.00
2018-11-10T15:21:50.541Z,15.89
2018-11-10T15:24:19.145Z,15.89
2018-11-10T15:26:47.631Z,15.85
2018-11-10T15:29:16.150Z,15.76
2018-11-10T15:31:45.250Z,15.64
2018-11-10T15:34:15.792Z,15.57
2018-11-10T15:36:46.799Z,15.63
2018-11-10T15:39:18.018Z,15.52
2018-11-10T15:41:48.055Z,15.45
2018-11-10T15:44:17.210Z,15.43
2018-11-10T15:46:46.928Z,15.34
2018-11-10T15:49:16.756Z,15.38
2018-11-10T15:51:45.856Z,15.30
2018-11-10T15:54:15.639Z,15.25
2018-11-10T15:56:45.940Z,15.27
2018-11-10T15:59:15.621Z,15.26
2018-11-10T16:01:44.985Z,15.21
2018-11-10T16:04:13.599Z,15.20
2018-11-10T16:06:42.840Z,15.12
2018-11-10T16:09:13.990Z,15.07
2018-11-10T16:11:43.452Z,15.04
2018-11-10T16:14:14.120Z,15.00
2018-11-10T16:16:43.351Z,15.04
2018-11-10T16:19:13.264Z,15.04
2018-11-10T16:21:43.411Z,15.04
2018-11-10T16:24:13.406Z,15.06
2018-11-10T16:26:42.827Z,15.04
2018-11-10T16:29:11.944Z,15.00
2018-11-10T16:31:40.632Z,14.97
2018-11-10T16:34:09.627Z,14.95
2018-11-10T16:36:39.629Z,14.89
2018-11-10T16:39:09.634Z,14.86
2018-11-10T16:41:38.288Z,14.89
2018-11-10T16:44:06.946Z,14.81
2018-11-10T16:46:36.256Z,14.75
2018-11-10T16:49:05.129Z,14.72
2018-11-10T16:51:34.872Z,14.66
2018-11-10T16:54:04.769Z,14.59
2018-11-10T16:56:34.156Z,14.54
2018-11-10T16:59:02.861Z,14.48
2018-11-10T17:01:31.485Z,14.46
2018-11-10T17:04:00.664Z,14.45
2018-11-10T17:06:30.281Z,14.37
2018-11-10T17:08:59.899Z,14.38
2018-11-10T17:11:29.642Z,14.35
2018-11-10T17:13:58.284Z,14.35
2018-11-10T17:16:27.800Z,14.34
2018-11-10T17:18:56.503Z,14.37
2018-11-10T17:21:25.266Z,14.35
2018-11-10T17:23:53.760Z,14.30
2018-11-10T17:26:22.425Z,14.23
2018-11-10T17:28:51.519Z,14.14
2018-11-10T17:31:20.219Z,14.15
2018-11-10T17:33:48.829Z,14.11
2018-11-10T17:36:18.749Z,14.12
2018-11-10T17:38:47.524Z,14.06
2018-11-10T17:41:16.008Z,14.07
2018-11-10T17:43:44.932Z,14.03
2018-11-10T17:46:13.648Z,14.00
2018-11-10T17:48:42.179Z,13.98
2018-11-10T17:51:11.359Z,13.95
2018-11-10T17:53:40.362Z,13.98
2018-11-10T17:56:08.907Z,13.91
2018-11-10T17:58:37.607Z,13.87
2018-11-10T18:01:06.244Z,13.86
2018-11-10T18:03:35.716Z,13.88
2018-11-10T18:06:04.646Z,13.85
2018-11-10T18:08:33.193Z,13.75
2018-11-10T18:11:02.542Z,13.78
2018-11-10T18:13:31.248Z,13.73
2018-11-10T18:16:00.162Z,13.68
2018-11-10T18:18:28.868Z,13.66
2018-11-10T18:20:58.432Z,13.60
2018-11-10T18:23:26.979Z,13.61
2018-11-10T18:25:55.964Z,13.60
2018-11-10T18:28:25.146Z,13.52
2018-11-10T18:30:54.026Z,13.51
2018-11-10T18:33:23.018Z,13.49
2018-11-10T18:35:51.846Z,13.49
2018-11-10T18:38:20.509Z,13.43
2018-11-10T18:40:49.709Z,13.48
2018-11-10T18:43:18.735Z,13.43
2018-11-10T18:45:50.035Z,13.44
2018-11-10T18:48:19.234Z,13.42
2018-11-10T18:50:48.193Z,13.37
2018-11-10T18:53:16.850Z,13.36
2018-11-10T18:55:45.534Z,13.33
2018-11-10T18:58:14.194Z,13.34
2018-11-10T19:00:42.863Z,13.30
2018-11-10T19:03:12.397Z,13.25
2018-11-10T19:05:42.356Z,13.22
2018-11-10T19:08:14.102Z,13.08
2018-11-10T19:10:43.310Z,13.11
2018-11-10T19:13:12.390Z,13.05
2018-11-10T19:15:41.506Z,13.03
2018-11-10T19:18:10.836Z,13.04
2018-11-10T19:20:40.285Z,13.02
2018-11-10T19:23:09.181Z,13.05
2018-11-10T19:25:38.688Z,12.97
2018-11-10T19:28:07.619Z,12.97
2018-11-10T19:30:36.582Z,13.00
2018-11-10T19:33:06.659Z,12.87
2018-11-10T19:35:35.872Z,12.89
2018-11-10T19:38:04.981Z,12.92
2018-11-10T19:40:34.539Z,12.88
2018-11-10T19:43:03.781Z,12.88
2018-11-10T19:45:33.715Z,12.87
2018-11-10T19:48:03.294Z,12.81
2018-11-10T19:50:35.289Z,12.72
2018-11-10T19:53:04.170Z,12.75
2018-11-10T19:55:34.167Z,12.76
2018-11-10T19:58:03.603Z,12.73
2018-11-10T20:00:32.411Z,12.70
2018-11-10T20:03:01.830Z,12.68
2018-11-10T20:05:31.413Z,12.75
2018-11-10T20:08:00.080Z,12.73
2018-11-10T20:10:28.828Z,12.73
2018-11-10T20:13:00.083Z,12.73
2018-11-10T20:15:29.217Z,12.71
2018-11-10T20:17:58.587Z,12.77
2018-11-10T20:20:27.617Z,12.74
2018-11-10T20:22:56.133Z,12.73
2018-11-10T20:25:24.950Z,12.67
2018-11-10T20:27:53.553Z,12.62
2018-11-10T20:30:22.396Z,12.68
2018-11-10T20:32:51.438Z,12.62
2018-11-10T20:35:19.961Z,12.52
2018-11-10T20:37:48.577Z,12.41
2018-11-10T20:40:19.010Z,12.46
2018-11-10T20:42:48.086Z,12.45
2018-11-10T20:45:18.471Z,12.40
2018-11-10T20:47:47.603Z,12.37
2018-11-10T20:50:16.770Z,12.39
2018-11-10T20:52:45.543Z,12.36
2018-11-10T20:55:14.597Z,12.39
2018-11-10T20:57:44.065Z,12.42
2018-11-10T21:00:15.521Z,12.38
2018-11-10T21:02:44.685Z,12.34
2018-11-10T21:05:13.776Z,12.36
2018-11-10T21:07:43.737Z,12.34
2018-11-10T21:10:15.291Z,12.33
2018-11-10T21:12:44.836Z,12.34
2018-11-10T21:15:14.165Z,12.31
2018-11-10T21:17:43.253Z,12.31
2018-11-10T21:20:12.576Z,12.35
2018-11-10T21:22:41.232Z,12.31
2018-11-10T21:25:13.122Z,12.27
2018-11-10T21:27:42.568Z,12.20
2018-11-10T21:30:12.709Z,12.23
2018-11-10T21:32:43.334Z,12.18
2018-11-10T21:35:12.195Z,12.28
2018-11-10T21:37:40.678Z,12.22
2018-11-10T21:40:13.835Z,12.18
2018-11-10T21:42:42.644Z,12.12
2018-11-10T21:45:12.403Z,12.10
2018-11-10T21:47:41.120Z,12.12
2018-11-10T21:50:13.012Z,12.11
2018-11-10T21:52:42.877Z,12.10
2018-11-10T21:55:17.657Z,12.19
2018-11-10T21:57:47.086Z,12.17
2018-11-10T22:00:17.670Z,12.18
2018-11-10T22:02:46.765Z,12.10
2018-11-10T22:05:18.251Z,11.99
2018-11-10T22:07:46.973Z,11.88
2018-11-10T22:10:17.008Z,11.85
2018-11-10T22:12:46.690Z,11.86
2018-11-10T22:15:16.718Z,11.90
2018-11-10T22:17:45.707Z,11.94
2018-11-10T22:20:17.287Z,11.91
2018-11-10T22:22:45.892Z,11.91
2018-11-10T22:25:14.851Z,11.92
2018-11-10T22:27:45.036Z,11.79
2018-11-10T22:30:15.967Z,11.84
2018-11-10T22:32:45.999Z,11.87
2018-11-10T22:35:15.599Z,11.93
2018-11-10T22:37:44.166Z,11.86
2018-11-10T22:40:15.310Z,11.93
2018-11-10T22:42:45.224Z,11.89
2018-11-10T22:45:15.867Z,11.91
2018-11-10T22:47:44.536Z,11.88
2018-11-10T22:50:18.021Z,11.87
2018-11-10T22:52:47.631Z,11.96
2018-11-10T22:55:16.165Z,11.91
2018-11-10T22:57:45.163Z,11.97
2018-11-10T23:00:26.807Z,11.87
2018-11-10T23:02:59.898Z,11.84
2018-11-10T23:05:32.415Z,11.82
2018-11-10T23:08:03.234Z,11.78
2018-11-10T23:10:31.925Z,11.72
2018-11-10T23:13:03.122Z,11.67
2018-11-10T23:15:32.008Z,11.59
2018-11-10T23:18:04.501Z,11.56
2018-11-10T23:20:33.222Z,11.51
2018-11-10T23:23:05.516Z,11.54
2018-11-10T23:25:37.833Z,11.52
2018-11-10T23:28:09.744Z,11.53
2018-11-10T23:30:38.455Z,11.48
2018-11-10T23:33:07.061Z,11.47
2018-11-10T23:35:35.569Z,11.42
2018-11-10T23:38:04.767Z,11.42
2018-11-10T23:40:33.274Z,11.46
2018-11-10T23:43:02.086Z,11.47
2018-11-10T23:45:30.815Z,11.52
2018-11-10T23:47:59.681Z,11.57
2018-11-10T23:50:33.605Z,11.55
2018-11-10T23:53:06.850Z,11.52
2018-11-10T23:55:39.660Z,11.56
2018-11-10T23:58:12.882Z,11.65
